sensor_id;sensor_type;location;lat;lon;timestamp;temperature;humidity
22469;DHT22;11401;50.792;4.352;2022-08-11T00:01:03;25.00;51.90
22469;DHT22;11401;50.792;4.352;2022-08-11T00:03:31;25.00;52.80
22469;DHT22;11401;50.792;4.352;2022-08-11T00:06:10;25.00;52.10
22469;DHT22;11401;50.792;4.352;2022-08-11T00:08:41;25.00;52.40
22469;DHT22;11401;50.792;4.352;2022-08-11T00:11:09;25.00;52.30
22469;DHT22;11401;50.792;4.352;2022-08-11T00:13:42;25.00;52.30
22469;DHT22;11401;50.792;4.352;2022-08-11T00:16:16;24.90;52.40
22469;DHT22;11401;50.792;4.352;2022-08-11T00:18:46;24.90;52.40
22469;DHT22;11401;50.792;4.352;2022-08-11T00:21:14;24.90;52.40
22469;DHT22;11401;50.792;4.352;2022-08-11T00:23:44;24.90;52.50
22469;DHT22;11401;50.792;4.352;2022-08-11T00:26:13;24.80;52.50
22469;DHT22;11401;50.792;4.352;2022-08-11T00:28:40;24.90;52.50
22469;DHT22;11401;50.792;4.352;2022-08-11T00:31:10;24.80;52.50
22469;DHT22;11401;50.792;4.352;2022-08-11T00:33:46;24.80;52.50
22469;DHT22;11401;50.792;4.352;2022-08-11T00:36:15;24.80;52.60
22469;DHT22;11401;50.792;4.352;2022-08-11T00:38:51;24.80;52.60
22469;DHT22;11401;50.792;4.352;2022-08-11T00:41:33;24.80;52.60
22469;DHT22;11401;50.792;4.352;2022-08-11T01:06:46;24.70;52.80
22469;DHT22;11401;50.792;4.352;2022-08-11T01:18:24;24.60;53.00
22469;DHT22;11401;50.792;4.352;2022-08-11T01:47:08;24.50;53.00
22469;DHT22;11401;50.792;4.352;2022-08-11T01:50:08;24.40;52.80
22469;DHT22;11401;50.792;4.352;2022-08-11T01:53:09;24.40;53.00
22469;DHT22;11401;50.792;4.352;2022-08-11T02:04:00;24.40;52.70
22469;DHT22;11401;50.792;4.352;2022-08-11T02:15:24;24.40;52.30
22469;DHT22;11401;50.792;4.352;2022-08-11T02:18:20;24.40;52.30
22469;DHT22;11401;50.792;4.352;2022-08-11T02:20:58;24.40;52.20
22469;DHT22;11401;50.792;4.352;2022-08-11T02:23:57;24.40;52.40
22469;DHT22;11401;50.792;4.352;2022-08-11T02:26:42;24.40;52.20
22469;DHT22;11401;50.792;4.352;2022-08-11T02:29:19;24.30;52.10
22469;DHT22;11401;50.792;4.352;2022-08-11T02:35:31;24.40;52.20
22469;DHT22;11401;50.792;4.352;2022-08-11T02:38:25;24.40;52.10
22469;DHT22;11401;50.792;4.352;2022-08-11T02:41:13;24.30;52.40
22469;DHT22;11401;50.792;4.352;2022-08-11T02:47:14;24.30;52.10
22469;DHT22;11401;50.792;4.352;2022-08-11T02:49:57;24.20;52.40
22469;DHT22;11401;50.792;4.352;2022-08-11T02:52:56;24.20;52.40
22469;DHT22;11401;50.792;4.352;2022-08-11T02:58:35;24.20;52.60
22469;DHT22;11401;50.792;4.352;2022-08-11T03:03:54;24.20;52.60
22469;DHT22;11401;50.792;4.352;2022-08-11T03:06:34;24.20;53.00
22469;DHT22;11401;50.792;4.352;2022-08-11T03:17:45;24.10;52.50
22469;DHT22;11401;50.792;4.352;2022-08-11T03:23:18;24.00;52.80
22469;DHT22;11401;50.792;4.352;2022-08-11T03:26:06;24.00;52.60
22469;DHT22;11401;50.792;4.352;2022-08-11T03:31:42;24.00;52.50
22469;DHT22;11401;50.792;4.352;2022-08-11T03:34:19;24.00;52.80
22469;DHT22;11401;50.792;4.352;2022-08-11T03:37:10;24.00;52.80
22469;DHT22;11401;50.792;4.352;2022-08-11T03:40:47;24.00;52.50
22469;DHT22;11401;50.792;4.352;2022-08-11T03:55:31;23.90;52.30
22469;DHT22;11401;50.792;4.352;2022-08-11T03:58:15;23.80;52.30
22469;DHT22;11401;50.792;4.352;2022-08-11T04:07:18;23.80;52.20
22469;DHT22;11401;50.792;4.352;2022-08-11T04:22:07;23.80;52.10
22469;DHT22;11401;50.792;4.352;2022-08-11T04:54:12;23.60;52.20
22469;DHT22;11401;50.792;4.352;2022-08-11T04:57:13;23.60;52.60
22469;DHT22;11401;50.792;4.352;2022-08-11T05:00:07;23.60;52.40
22469;DHT22;11401;50.792;4.352;2022-08-11T05:03:19;23.60;52.60
22469;DHT22;11401;50.792;4.352;2022-08-11T05:11:35;23.60;52.60
22469;DHT22;11401;50.792;4.352;2022-08-11T05:17:05;23.60;52.70
22469;DHT22;11401;50.792;4.352;2022-08-11T05:19:54;23.60;52.60
22469;DHT22;11401;50.792;4.352;2022-08-11T05:22:46;23.60;52.90
22469;DHT22;11401;50.792;4.352;2022-08-11T05:25:34;23.70;52.80
22469;DHT22;11401;50.792;4.352;2022-08-11T05:28:54;23.70;52.80
22469;DHT22;11401;50.792;4.352;2022-08-11T05:31:57;23.70;52.50
22469;DHT22;11401;50.792;4.352;2022-08-11T05:34:47;23.60;52.50
22469;DHT22;11401;50.792;4.352;2022-08-11T05:40:10;23.80;52.50
22469;DHT22;11401;50.792;4.352;2022-08-11T05:43:11;23.80;52.60
22469;DHT22;11401;50.792;4.352;2022-08-11T05:46:01;23.80;52.30
22469;DHT22;11401;50.792;4.352;2022-08-11T05:48:48;23.80;52.40
22469;DHT22;11401;50.792;4.352;2022-08-11T05:51:39;23.90;52.60
22469;DHT22;11401;50.792;4.352;2022-08-11T05:54:39;23.90;52.60
22469;DHT22;11401;50.792;4.352;2022-08-11T05:57:35;23.90;52.70
22469;DHT22;11401;50.792;4.352;2022-08-11T06:00:18;23.90;52.60
22469;DHT22;11401;50.792;4.352;2022-08-11T06:02:52;23.90;52.60
22469;DHT22;11401;50.792;4.352;2022-08-11T06:05:36;24.00;52.70
22469;DHT22;11401;50.792;4.352;2022-08-11T06:08:11;24.00;52.60
22469;DHT22;11401;50.792;4.352;2022-08-11T06:10:40;24.10;52.80
22469;DHT22;11401;50.792;4.352;2022-08-11T06:13:09;24.10;53.30
22469;DHT22;11401;50.792;4.352;2022-08-11T06:15:44;24.10;52.80
22469;DHT22;11401;50.792;4.352;2022-08-11T06:18:13;24.10;52.70
22469;DHT22;11401;50.792;4.352;2022-08-11T06:20:51;24.10;53.20
22469;DHT22;11401;50.792;4.352;2022-08-11T06:23:21;24.20;52.60
22469;DHT22;11401;50.792;4.352;2022-08-11T06:25:53;24.20;52.70
22469;DHT22;11401;50.792;4.352;2022-08-11T06:28:33;24.20;52.70
22469;DHT22;11401;50.792;4.352;2022-08-11T06:31:14;24.20;52.60
22469;DHT22;11401;50.792;4.352;2022-08-11T06:36:34;24.30;52.30
22469;DHT22;11401;50.792;4.352;2022-08-11T06:42:08;24.30;52.80
22469;DHT22;11401;50.792;4.352;2022-08-11T06:44:54;24.30;52.50
22469;DHT22;11401;50.792;4.352;2022-08-11T06:47:27;24.30;52.60
22469;DHT22;11401;50.792;4.352;2022-08-11T06:49:55;24.30;52.90
22469;DHT22;11401;50.792;4.352;2022-08-11T06:52:44;24.40;52.80
22469;DHT22;11401;50.792;4.352;2022-08-11T06:55:14;24.40;53.50
22469;DHT22;11401;50.792;4.352;2022-08-11T06:58:29;24.40;52.70
22469;DHT22;11401;50.792;4.352;2022-08-11T07:01:21;24.40;52.80
22469;DHT22;11401;50.792;4.352;2022-08-11T07:03:57;24.40;52.60
22469;DHT22;11401;50.792;4.352;2022-08-11T07:06:48;24.50;52.60
22469;DHT22;11401;50.792;4.352;2022-08-11T07:12:45;24.50;52.70
22469;DHT22;11401;50.792;4.352;2022-08-11T07:15:34;24.50;52.70
22469;DHT22;11401;50.792;4.352;2022-08-11T07:18:33;24.50;52.50
22469;DHT22;11401;50.792;4.352;2022-08-11T07:21:31;24.60;52.60
22469;DHT22;11401;50.792;4.352;2022-08-11T07:28:25;24.60;52.80
22469;DHT22;11401;50.792;4.352;2022-08-11T07:31:14;24.60;53.60
22469;DHT22;11401;50.792;4.352;2022-08-11T07:33:58;24.60;53.20
22469;DHT22;11401;50.792;4.352;2022-08-11T07:36:39;24.70;53.30
22469;DHT22;11401;50.792;4.352;2022-08-11T07:39:18;24.70;53.50
22469;DHT22;11401;50.792;4.352;2022-08-11T07:41:47;24.70;53.30
22469;DHT22;11401;50.792;4.352;2022-08-11T07:44:15;24.70;53.00
22469;DHT22;11401;50.792;4.352;2022-08-11T07:46:46;24.80;53.50
22469;DHT22;11401;50.792;4.352;2022-08-11T07:49:35;24.80;53.40
22469;DHT22;11401;50.792;4.352;2022-08-11T07:52:23;24.90;53.30
22469;DHT22;11401;50.792;4.352;2022-08-11T07:55:00;24.90;53.50
22469;DHT22;11401;50.792;4.352;2022-08-11T07:57:30;24.90;53.20
22469;DHT22;11401;50.792;4.352;2022-08-11T08:00:42;24.90;52.90
22469;DHT22;11401;50.792;4.352;2022-08-11T08:03:36;24.90;53.60
22469;DHT22;11401;50.792;4.352;2022-08-11T08:06:22;24.90;53.60
22469;DHT22;11401;50.792;4.352;2022-08-11T08:09:08;24.90;53.90
22469;DHT22;11401;50.792;4.352;2022-08-11T08:11:55;25.00;54.70
22469;DHT22;11401;50.792;4.352;2022-08-11T08:14:41;25.00;54.10
22469;DHT22;11401;50.792;4.352;2022-08-11T08:17:28;25.00;53.90
22469;DHT22;11401;50.792;4.352;2022-08-11T08:20:45;25.00;54.10
22469;DHT22;11401;50.792;4.352;2022-08-11T08:23:12;25.00;54.30
22469;DHT22;11401;50.792;4.352;2022-08-11T08:25:42;25.00;54.60
22469;DHT22;11401;50.792;4.352;2022-08-11T08:28:15;25.00;54.20
22469;DHT22;11401;50.792;4.352;2022-08-11T08:30:43;25.10;54.30
22469;DHT22;11401;50.792;4.352;2022-08-11T08:33:17;25.00;54.60
22469;DHT22;11401;50.792;4.352;2022-08-11T08:35:46;25.00;54.60
22469;DHT22;11401;50.792;4.352;2022-08-11T08:38:21;25.10;54.60
22469;DHT22;11401;50.792;4.352;2022-08-11T08:40:51;25.10;54.60
22469;DHT22;11401;50.792;4.352;2022-08-11T08:43:23;25.10;54.80
22469;DHT22;11401;50.792;4.352;2022-08-11T08:45:54;25.10;54.60
22469;DHT22;11401;50.792;4.352;2022-08-11T08:48:24;25.10;54.60
22469;DHT22;11401;50.792;4.352;2022-08-11T08:50:59;25.10;54.80
22469;DHT22;11401;50.792;4.352;2022-08-11T08:53:50;25.10;55.00
22469;DHT22;11401;50.792;4.352;2022-08-11T08:56:27;25.10;55.00
22469;DHT22;11401;50.792;4.352;2022-08-11T08:58:58;25.10;55.10
22469;DHT22;11401;50.792;4.352;2022-08-11T09:01:32;25.10;55.10
22469;DHT22;11401;50.792;4.352;2022-08-11T09:04:06;25.10;55.00
22469;DHT22;11401;50.792;4.352;2022-08-11T09:06:39;25.10;55.00
22469;DHT22;11401;50.792;4.352;2022-08-11T09:09:07;25.10;55.00
22469;DHT22;11401;50.792;4.352;2022-08-11T09:11:35;25.10;55.00
22469;DHT22;11401;50.792;4.352;2022-08-11T09:14:37;25.10;55.10
22469;DHT22;11401;50.792;4.352;2022-08-11T09:17:24;25.10;55.10
22469;DHT22;11401;50.792;4.352;2022-08-11T09:20:00;25.10;55.10
22469;DHT22;11401;50.792;4.352;2022-08-11T09:22:31;25.10;55.10
22469;DHT22;11401;50.792;4.352;2022-08-11T09:25:37;25.10;55.20
22469;DHT22;11401;50.792;4.352;2022-08-11T09:28:23;25.10;55.10
22469;DHT22;11401;50.792;4.352;2022-08-11T09:30:56;25.10;55.10
22469;DHT22;11401;50.792;4.352;2022-08-11T09:33:24;25.10;55.10
22469;DHT22;11401;50.792;4.352;2022-08-11T09:35:51;25.10;55.10
22469;DHT22;11401;50.792;4.352;2022-08-11T09:38:20;25.10;55.10
22469;DHT22;11401;50.792;4.352;2022-08-11T09:41:13;25.10;55.10
22469;DHT22;11401;50.792;4.352;2022-08-11T09:43:45;25.10;55.10
22469;DHT22;11401;50.792;4.352;2022-08-11T09:46:32;25.10;55.80
22469;DHT22;11401;50.792;4.352;2022-08-11T09:49:00;25.10;55.20
22469;DHT22;11401;50.792;4.352;2022-08-11T09:51:31;25.10;55.30
22469;DHT22;11401;50.792;4.352;2022-08-11T09:54:01;25.10;55.20
22469;DHT22;11401;50.792;4.352;2022-08-11T09:56:32;25.10;55.10
22469;DHT22;11401;50.792;4.352;2022-08-11T09:59:20;25.10;55.30
22469;DHT22;11401;50.792;4.352;2022-08-11T10:01:56;25.10;55.10
22469;DHT22;11401;50.792;4.352;2022-08-11T10:04:41;25.20;55.10
22469;DHT22;11401;50.792;4.352;2022-08-11T10:07:14;25.20;55.10
22469;DHT22;11401;50.792;4.352;2022-08-11T10:09:51;25.20;54.90
22469;DHT22;11401;50.792;4.352;2022-08-11T10:15:02;25.20;55.10
22469;DHT22;11401;50.792;4.352;2022-08-11T10:17:53;25.20;55.20
22469;DHT22;11401;50.792;4.352;2022-08-11T10:20:41;25.20;55.20
22469;DHT22;11401;50.792;4.352;2022-08-11T10:23:11;25.10;55.20
22469;DHT22;11401;50.792;4.352;2022-08-11T10:25:57;25.20;55.40
22469;DHT22;11401;50.792;4.352;2022-08-11T10:28:43;25.10;55.50
22469;DHT22;11401;50.792;4.352;2022-08-11T10:31:30;25.10;55.40
22469;DHT22;11401;50.792;4.352;2022-08-11T10:34:23;25.20;55.40
22469;DHT22;11401;50.792;4.352;2022-08-11T10:36:55;25.10;55.30
22469;DHT22;11401;50.792;4.352;2022-08-11T10:39:25;25.20;55.40
22469;DHT22;11401;50.792;4.352;2022-08-11T10:41:53;25.20;55.40
22469;DHT22;11401;50.792;4.352;2022-08-11T10:45:03;25.10;55.30
22469;DHT22;11401;50.792;4.352;2022-08-11T10:47:53;25.10;55.40
22469;DHT22;11401;50.792;4.352;2022-08-11T10:50:22;25.20;55.40
22469;DHT22;11401;50.792;4.352;2022-08-11T10:53:09;25.20;55.40
22469;DHT22;11401;50.792;4.352;2022-08-11T10:55:55;25.20;55.40
22469;DHT22;11401;50.792;4.352;2022-08-11T10:58:41;25.20;55.10
22469;DHT22;11401;50.792;4.352;2022-08-11T11:01:21;25.20;55.40
22469;DHT22;11401;50.792;4.352;2022-08-11T11:04:01;25.20;55.30
22469;DHT22;11401;50.792;4.352;2022-08-11T11:06:39;25.20;55.10
22469;DHT22;11401;50.792;4.352;2022-08-11T11:09:15;25.20;55.20
22469;DHT22;11401;50.792;4.352;2022-08-11T11:11:56;25.20;55.30
22469;DHT22;11401;50.792;4.352;2022-08-11T11:14:43;25.20;55.30
22469;DHT22;11401;50.792;4.352;2022-08-11T11:17:41;25.20;55.50
22469;DHT22;11401;50.792;4.352;2022-08-11T11:23:31;25.20;55.30
22469;DHT22;11401;50.792;4.352;2022-08-11T11:32:29;25.20;55.10
22469;DHT22;11401;50.792;4.352;2022-08-11T11:37:50;25.20;55.20
22469;DHT22;11401;50.792;4.352;2022-08-11T11:40:30;25.20;55.30
22469;DHT22;11401;50.792;4.352;2022-08-11T11:42:58;25.20;55.30
22469;DHT22;11401;50.792;4.352;2022-08-11T11:45:26;25.20;56.00
22469;DHT22;11401;50.792;4.352;2022-08-11T11:47:56;25.20;55.50
22469;DHT22;11401;50.792;4.352;2022-08-11T11:50:33;25.20;55.40
22469;DHT22;11401;50.792;4.352;2022-08-11T11:53:07;25.20;56.00
22469;DHT22;11401;50.792;4.352;2022-08-11T11:55:35;25.20;55.50
22469;DHT22;11401;50.792;4.352;2022-08-11T11:58:03;25.20;55.40
22469;DHT22;11401;50.792;4.352;2022-08-11T12:00:50;25.20;55.40
22469;DHT22;11401;50.792;4.352;2022-08-11T12:03:37;25.20;55.40
22469;DHT22;11401;50.792;4.352;2022-08-11T12:06:07;25.20;55.40
22469;DHT22;11401;50.792;4.352;2022-08-11T12:08:36;25.20;55.60
22469;DHT22;11401;50.792;4.352;2022-08-11T12:11:06;25.20;55.40
22469;DHT22;11401;50.792;4.352;2022-08-11T12:13:56;25.20;55.40
22469;DHT22;11401;50.792;4.352;2022-08-11T12:16:24;25.20;55.50
22469;DHT22;11401;50.792;4.352;2022-08-11T12:19:06;25.20;55.60
22469;DHT22;11401;50.792;4.352;2022-08-11T12:21:34;25.20;55.40
22469;DHT22;11401;50.792;4.352;2022-08-11T12:24:03;25.20;55.50
22469;DHT22;11401;50.792;4.352;2022-08-11T12:26:56;25.20;55.50
22469;DHT22;11401;50.792;4.352;2022-08-11T12:29:46;25.10;55.50
22469;DHT22;11401;50.792;4.352;2022-08-11T12:32:22;25.10;55.60
22469;DHT22;11401;50.792;4.352;2022-08-11T12:34:50;25.10;55.70
22469;DHT22;11401;50.792;4.352;2022-08-11T12:37:23;25.20;55.60
22469;DHT22;11401;50.792;4.352;2022-08-11T12:40:03;25.20;55.60
22469;DHT22;11401;50.792;4.352;2022-08-11T12:43:16;25.20;55.50
22469;DHT22;11401;50.792;4.352;2022-08-11T12:46:07;25.20;55.60
22469;DHT22;11401;50.792;4.352;2022-08-11T12:48:38;25.20;55.60
22469;DHT22;11401;50.792;4.352;2022-08-11T12:51:36;25.20;55.60
22469;DHT22;11401;50.792;4.352;2022-08-11T12:57:38;25.10;55.70
22469;DHT22;11401;50.792;4.352;2022-08-11T13:00:24;25.20;55.50
22469;DHT22;11401;50.792;4.352;2022-08-11T13:03:12;25.20;55.70
22469;DHT22;11401;50.792;4.352;2022-08-11T13:06:01;25.20;55.60
22469;DHT22;11401;50.792;4.352;2022-08-11T13:08:39;25.10;55.60
22469;DHT22;11401;50.792;4.352;2022-08-11T13:11:07;25.20;55.70
22469;DHT22;11401;50.792;4.352;2022-08-11T13:14:14;25.20;55.70
22469;DHT22;11401;50.792;4.352;2022-08-11T13:16:43;25.10;55.60
22469;DHT22;11401;50.792;4.352;2022-08-11T13:19:29;25.20;55.60
22469;DHT22;11401;50.792;4.352;2022-08-11T13:21:56;25.20;55.30
22469;DHT22;11401;50.792;4.352;2022-08-11T13:24:24;25.20;55.50
22469;DHT22;11401;50.792;4.352;2022-08-11T13:26:51;25.10;55.50
22469;DHT22;11401;50.792;4.352;2022-08-11T13:29:23;25.10;55.50
22469;DHT22;11401;50.792;4.352;2022-08-11T13:31:52;25.20;55.50
22469;DHT22;11401;50.792;4.352;2022-08-11T13:34:22;25.20;55.50
22469;DHT22;11401;50.792;4.352;2022-08-11T13:36:52;25.20;55.50
22469;DHT22;11401;50.792;4.352;2022-08-11T13:39:21;25.20;55.50
22469;DHT22;11401;50.792;4.352;2022-08-11T13:41:54;25.20;55.50
22469;DHT22;11401;50.792;4.352;2022-08-11T13:44:25;25.20;55.50
22469;DHT22;11401;50.792;4.352;2022-08-11T13:46:56;25.20;55.40
22469;DHT22;11401;50.792;4.352;2022-08-11T13:49:25;25.20;55.50
22469;DHT22;11401;50.792;4.352;2022-08-11T13:51:53;25.20;55.50
22469;DHT22;11401;50.792;4.352;2022-08-11T13:54:24;25.20;55.40
22469;DHT22;11401;50.792;4.352;2022-08-11T13:56:54;25.20;55.40
22469;DHT22;11401;50.792;4.352;2022-08-11T13:59:22;25.20;55.50
22469;DHT22;11401;50.792;4.352;2022-08-11T14:02:03;25.20;55.60
22469;DHT22;11401;50.792;4.352;2022-08-11T14:05:02;25.20;55.50
22469;DHT22;11401;50.792;4.352;2022-08-11T14:07:52;25.20;55.50
22469;DHT22;11401;50.792;4.352;2022-08-11T14:10:25;25.20;55.50
22469;DHT22;11401;50.792;4.352;2022-08-11T14:13:05;25.20;55.50
22469;DHT22;11401;50.792;4.352;2022-08-11T14:15:54;25.20;56.10
22469;DHT22;11401;50.792;4.352;2022-08-11T14:18:25;25.20;55.60
22469;DHT22;11401;50.792;4.352;2022-08-11T14:20:57;25.20;55.50
22469;DHT22;11401;50.792;4.352;2022-08-11T14:23:46;25.20;55.60
22469;DHT22;11401;50.792;4.352;2022-08-11T14:26:16;25.20;55.60
22469;DHT22;11401;50.792;4.352;2022-08-11T14:31:25;25.20;55.50
22469;DHT22;11401;50.792;4.352;2022-08-11T14:33:54;25.20;55.50
22469;DHT22;11401;50.792;4.352;2022-08-11T14:36:36;25.20;55.50
22469;DHT22;11401;50.792;4.352;2022-08-11T14:39:15;25.20;55.50
22469;DHT22;11401;50.792;4.352;2022-08-11T14:41:56;25.20;55.40
22469;DHT22;11401;50.792;4.352;2022-08-11T14:44:56;25.20;55.50
22469;DHT22;11401;50.792;4.352;2022-08-11T14:47:46;25.20;55.50
22469;DHT22;11401;50.792;4.352;2022-08-11T14:50:17;25.20;55.60
22469;DHT22;11401;50.792;4.352;2022-08-11T14:55:18;25.20;55.50
22469;DHT22;11401;50.792;4.352;2022-08-11T14:58:04;25.20;56.30
22469;DHT22;11401;50.792;4.352;2022-08-11T15:00:34;25.20;55.60
22469;DHT22;11401;50.792;4.352;2022-08-11T15:03:05;25.20;55.70
22469;DHT22;11401;50.792;4.352;2022-08-11T15:08:24;25.20;55.50
22469;DHT22;11401;50.792;4.352;2022-08-11T15:11:13;25.20;55.50
22469;DHT22;11401;50.792;4.352;2022-08-11T15:14:03;25.20;55.50
22469;DHT22;11401;50.792;4.352;2022-08-11T15:16:31;25.20;55.40
22469;DHT22;11401;50.792;4.352;2022-08-11T15:19:19;25.20;55.50
22469;DHT22;11401;50.792;4.352;2022-08-11T15:21:48;25.20;55.50
22469;DHT22;11401;50.792;4.352;2022-08-11T15:24:34;25.20;55.50
22469;DHT22;11401;50.792;4.352;2022-08-11T15:27:11;25.20;55.60
22469;DHT22;11401;50.792;4.352;2022-08-11T15:30:00;25.20;55.50
22469;DHT22;11401;50.792;4.352;2022-08-11T15:33:02;25.20;55.50
22469;DHT22;11401;50.792;4.352;2022-08-11T15:35:50;25.20;55.50
22469;DHT22;11401;50.792;4.352;2022-08-11T15:38:52;25.20;56.20
22469;DHT22;11401;50.792;4.352;2022-08-11T15:41:25;25.20;55.60
22469;DHT22;11401;50.792;4.352;2022-08-11T15:44:28;25.20;55.60
22469;DHT22;11401;50.792;4.352;2022-08-11T15:47:36;25.20;55.70
22469;DHT22;11401;50.792;4.352;2022-08-11T15:50:09;25.20;55.70
22469;DHT22;11401;50.792;4.352;2022-08-11T15:53:07;25.20;55.70
22469;DHT22;11401;50.792;4.352;2022-08-11T15:55:34;25.20;55.70
22469;DHT22;11401;50.792;4.352;2022-08-11T15:58:06;25.20;55.80
22469;DHT22;11401;50.792;4.352;2022-08-11T16:00:54;25.20;55.70
22469;DHT22;11401;50.792;4.352;2022-08-11T16:03:52;25.20;55.70
22469;DHT22;11401;50.792;4.352;2022-08-11T16:06:43;25.20;55.70
22469;DHT22;11401;50.792;4.352;2022-08-11T16:09:19;25.20;55.60
22469;DHT22;11401;50.792;4.352;2022-08-11T16:11:48;25.20;55.70
22469;DHT22;11401;50.792;4.352;2022-08-11T16:14:18;25.20;55.70
22469;DHT22;11401;50.792;4.352;2022-08-11T16:17:06;25.20;55.70
22469;DHT22;11401;50.792;4.352;2022-08-11T16:19:36;25.20;55.70
22469;DHT22;11401;50.792;4.352;2022-08-11T16:22:10;25.20;55.70
22469;DHT22;11401;50.792;4.352;2022-08-11T16:24:41;25.20;55.60
22469;DHT22;11401;50.792;4.352;2022-08-11T16:27:32;25.30;55.70
22469;DHT22;11401;50.792;4.352;2022-08-11T16:30:02;25.20;55.40
22469;DHT22;11401;50.792;4.352;2022-08-11T16:32:33;25.30;55.50
22469;DHT22;11401;50.792;4.352;2022-08-11T16:35:04;25.20;55.50
22469;DHT22;11401;50.792;4.352;2022-08-11T16:37:51;25.20;55.50
22469;DHT22;11401;50.792;4.352;2022-08-11T16:40:38;25.30;55.50
22469;DHT22;11401;50.792;4.352;2022-08-11T16:43:07;25.20;55.50
22469;DHT22;11401;50.792;4.352;2022-08-11T16:45:54;25.30;55.60
22469;DHT22;11401;50.792;4.352;2022-08-11T16:48:41;25.20;55.40
22469;DHT22;11401;50.792;4.352;2022-08-11T16:51:10;25.20;55.50
22469;DHT22;11401;50.792;4.352;2022-08-11T16:53:39;25.30;55.60
22469;DHT22;11401;50.792;4.352;2022-08-11T16:56:42;25.20;55.40
22469;DHT22;11401;50.792;4.352;2022-08-11T16:59:18;25.30;55.60
22469;DHT22;11401;50.792;4.352;2022-08-11T17:01:56;25.30;55.70
22469;DHT22;11401;50.792;4.352;2022-08-11T17:04:29;25.30;55.70
22469;DHT22;11401;50.792;4.352;2022-08-11T17:07:17;25.30;55.70
22469;DHT22;11401;50.792;4.352;2022-08-11T17:10:23;25.20;55.80
22469;DHT22;11401;50.792;4.352;2022-08-11T17:13:31;25.30;55.80
22469;DHT22;11401;50.792;4.352;2022-08-11T17:16:01;25.30;55.80
22469;DHT22;11401;50.792;4.352;2022-08-11T17:18:53;25.20;55.80
22469;DHT22;11401;50.792;4.352;2022-08-11T17:21:29;25.30;55.70
22469;DHT22;11401;50.792;4.352;2022-08-11T17:24:05;25.30;55.80
22469;DHT22;11401;50.792;4.352;2022-08-11T17:26:41;25.20;55.80
22469;DHT22;11401;50.792;4.352;2022-08-11T17:35:24;25.20;55.80
22469;DHT22;11401;50.792;4.352;2022-08-11T17:40:26;25.20;55.80
22469;DHT22;11401;50.792;4.352;2022-08-11T17:42:56;25.20;55.80
22469;DHT22;11401;50.792;4.352;2022-08-11T17:45:43;25.30;55.90
22469;DHT22;11401;50.792;4.352;2022-08-11T17:48:35;25.20;55.90
22469;DHT22;11401;50.792;4.352;2022-08-11T17:51:17;25.30;55.80
22469;DHT22;11401;50.792;4.352;2022-08-11T17:54:05;25.30;55.90
22469;DHT22;11401;50.792;4.352;2022-08-11T17:56:52;25.20;55.80
22469;DHT22;11401;50.792;4.352;2022-08-11T17:59:48;25.20;55.70
22469;DHT22;11401;50.792;4.352;2022-08-11T18:05:10;25.30;56.10
22469;DHT22;11401;50.792;4.352;2022-08-11T18:07:40;25.30;56.10
22469;DHT22;11401;50.792;4.352;2022-08-11T18:10:29;25.30;56.20
22469;DHT22;11401;50.792;4.352;2022-08-11T18:13:21;25.30;56.30
22469;DHT22;11401;50.792;4.352;2022-08-11T18:16:08;25.30;56.10
22469;DHT22;11401;50.792;4.352;2022-08-11T18:18:54;25.30;56.00
22469;DHT22;11401;50.792;4.352;2022-08-11T18:21:45;25.30;56.00
22469;DHT22;11401;50.792;4.352;2022-08-11T18:24:49;25.30;55.90
22469;DHT22;11401;50.792;4.352;2022-08-11T18:27:39;25.30;55.90
22469;DHT22;11401;50.792;4.352;2022-08-11T18:30:25;25.30;55.90
22469;DHT22;11401;50.792;4.352;2022-08-11T18:33:13;25.30;56.00
22469;DHT22;11401;50.792;4.352;2022-08-11T18:36:22;25.30;56.00
22469;DHT22;11401;50.792;4.352;2022-08-11T18:39:10;25.30;56.60
22469;DHT22;11401;50.792;4.352;2022-08-11T18:42:00;25.30;56.00
22469;DHT22;11401;50.792;4.352;2022-08-11T18:44:59;25.30;56.00
22469;DHT22;11401;50.792;4.352;2022-08-11T18:47:48;25.30;56.00
22469;DHT22;11401;50.792;4.352;2022-08-11T18:50:37;25.30;56.00
22469;DHT22;11401;50.792;4.352;2022-08-11T18:53:46;25.30;56.00
22469;DHT22;11401;50.792;4.352;2022-08-11T18:56:33;25.30;56.00
22469;DHT22;11401;50.792;4.352;2022-08-11T18:59:22;25.30;56.00
22469;DHT22;11401;50.792;4.352;2022-08-11T19:02:10;25.30;56.00
22469;DHT22;11401;50.792;4.352;2022-08-11T19:04:57;25.40;56.00
22469;DHT22;11401;50.792;4.352;2022-08-11T19:08:06;25.30;56.00
22469;DHT22;11401;50.792;4.352;2022-08-11T19:10:54;25.30;56.00
22469;DHT22;11401;50.792;4.352;2022-08-11T19:13:46;25.30;56.00
22469;DHT22;11401;50.792;4.352;2022-08-11T19:16:33;25.30;56.00
22469;DHT22;11401;50.792;4.352;2022-08-11T19:19:23;25.30;56.00
22469;DHT22;11401;50.792;4.352;2022-08-11T19:22:15;25.30;56.10
22469;DHT22;11401;50.792;4.352;2022-08-11T19:25:03;25.40;56.20
22469;DHT22;11401;50.792;4.352;2022-08-11T19:27:53;25.30;56.50
22469;DHT22;11401;50.792;4.352;2022-08-11T19:30:38;25.30;56.40
22469;DHT22;11401;50.792;4.352;2022-08-11T19:33:26;25.30;56.50
22469;DHT22;11401;50.792;4.352;2022-08-11T19:36:32;25.40;56.70
22469;DHT22;11401;50.792;4.352;2022-08-11T19:39:19;25.40;56.60
22469;DHT22;11401;50.792;4.352;2022-08-11T19:42:07;25.40;56.40
22469;DHT22;11401;50.792;4.352;2022-08-11T19:44:54;25.40;56.30
22469;DHT22;11401;50.792;4.352;2022-08-11T19:47:44;25.40;56.40
22469;DHT22;11401;50.792;4.352;2022-08-11T19:50:51;25.40;56.40
22469;DHT22;11401;50.792;4.352;2022-08-11T19:53:38;25.40;56.60
22469;DHT22;11401;50.792;4.352;2022-08-11T19:56:25;25.40;56.40
22469;DHT22;11401;50.792;4.352;2022-08-11T19:59:12;25.40;56.00
22469;DHT22;11401;50.792;4.352;2022-08-11T20:01:57;25.50;56.20
22469;DHT22;11401;50.792;4.352;2022-08-11T20:04:43;25.50;56.70
22469;DHT22;11401;50.792;4.352;2022-08-11T20:07:29;25.40;56.00
22469;DHT22;11401;50.792;4.352;2022-08-11T20:10:19;25.50;56.00
22469;DHT22;11401;50.792;4.352;2022-08-11T20:13:06;25.50;56.30
22469;DHT22;11401;50.792;4.352;2022-08-11T20:15:53;25.50;55.10
22469;DHT22;11401;50.792;4.352;2022-08-11T20:18:40;25.50;55.20
22469;DHT22;11401;50.792;4.352;2022-08-11T20:21:27;25.50;55.20
22469;DHT22;11401;50.792;4.352;2022-08-11T20:24:14;25.50;54.80
22469;DHT22;11401;50.792;4.352;2022-08-11T20:27:03;25.50;54.50
22469;DHT22;11401;50.792;4.352;2022-08-11T20:29:52;25.60;54.30
22469;DHT22;11401;50.792;4.352;2022-08-11T20:32:39;25.50;54.00
22469;DHT22;11401;50.792;4.352;2022-08-11T20:35:25;25.60;54.60
22469;DHT22;11401;50.792;4.352;2022-08-11T20:38:14;25.60;53.60
22469;DHT22;11401;50.792;4.352;2022-08-11T20:41:00;25.60;53.40
22469;DHT22;11401;50.792;4.352;2022-08-11T20:43:48;25.60;53.30
22469;DHT22;11401;50.792;4.352;2022-08-11T20:46:37;25.60;53.00